createdAt,value
2022-11-04T00:00:42.999Z,76.69
2022-11-04T00:03:09.942Z,76.31
2022-11-04T00:05:36.613Z,75.80
2022-11-04T00:08:04.885Z,77.35
2022-11-04T00:10:31.254Z,76.60
2022-11-04T00:12:57.637Z,75.78
2022-11-04T00:15:24.268Z,76.65
2022-11-04T00:17:50.647Z,75.89
2022-11-04T00:20:17.325Z,73.56
2022-11-04T00:22:48.409Z,74.71
2022-11-04T00:25:16.470Z,75.35
2022-11-04T00:27:42.849Z,76.58
2022-11-04T00:30:10.902Z,76.42
2022-11-04T00:32:37.344Z,75.82
2022-11-04T00:35:04.685Z,73.60
2022-11-04T00:37:31.129Z,73.08
2022-11-04T00:39:57.545Z,73.36
2022-11-04T00:42:25.287Z,73.33
2022-11-04T00:44:51.885Z,73.12
2022-11-04T00:47:18.266Z,75.43
2022-11-04T00:49:44.667Z,76.47
2022-11-04T00:52:11.101Z,74.63
2022-11-04T00:54:37.514Z,76.37
2022-11-04T00:57:03.930Z,75.87
2022-11-04T00:59:31.673Z,74.04
2022-11-04T01:01:58.205Z,74.52
2022-11-04T01:04:24.720Z,73.48
2022-11-04T01:06:51.503Z,73.92
2022-11-04T01:09:18.220Z,75.10
2022-11-04T01:11:44.646Z,75.98
2022-11-04T01:14:11.343Z,76.51
2022-11-04T01:16:39.303Z,78.44
2022-11-04T01:19:06.362Z,79.16
2022-11-04T01:21:32.767Z,78.60
2022-11-04T01:23:59.727Z,79.26
2022-11-04T01:26:27.234Z,80.64
2022-11-04T01:28:55.314Z,79.05
2022-11-04T01:31:23.189Z,79.52
2022-11-04T01:33:52.648Z,79.35
2022-11-04T01:36:20.673Z,81.15
2022-11-04T01:38:47.942Z,80.37
2022-11-04T01:41:18.815Z,79.24
2022-11-04T01:43:49.519Z,80.37
2022-11-04T01:46:25.786Z,80.12
2022-11-04T01:48:56.372Z,80.37
2022-11-04T01:51:23.262Z,80.03
2022-11-04T01:53:52.163Z,80.79
2022-11-04T01:56:18.806Z,81.65
2022-11-04T01:58:49.247Z,82.27
2022-11-04T02:01:16.091Z,84.52
2022-11-04T02:03:48.641Z,84.78
2022-11-04T02:06:19.087Z,83.76
2022-11-04T02:08:46.294Z,82.64
2022-11-04T02:11:12.734Z,83.60
2022-11-04T02:13:39.226Z,83.59
2022-11-04T02:16:15.487Z,83.83
2022-11-04T02:18:54.438Z,81.04
2022-11-04T02:21:55.534Z,82.26
2022-11-04T02:24:42.671Z,82.26
2022-11-04T02:27:30.906Z,82.53
2022-11-04T02:30:07.920Z,80.58
2022-11-04T02:32:52.880Z,82.41
2022-11-04T02:35:27.350Z,82.16
2022-11-04T02:38:02.994Z,82.52
2022-11-04T02:40:38.919Z,83.03
2022-11-04T02:43:13.627Z,81.59
2022-11-04T02:45:45.030Z,81.34
2022-11-04T02:48:20.221Z,79.20
2022-11-04T02:50:51.486Z,78.70
2022-11-04T02:53:23.362Z,80.18
2022-11-04T02:55:54.030Z,78.71
2022-11-04T02:58:23.491Z,80.59
2022-11-04T03:00:53.726Z,81.29
2022-11-04T03:03:24.729Z,81.02
2022-11-04T03:05:54.505Z,79.96
2022-11-04T03:08:26.269Z,80.17
2022-11-04T03:10:56.742Z,82.89
2022-11-04T03:13:29.303Z,79.98
2022-11-04T03:16:01.782Z,80.70
2022-11-04T03:18:36.279Z,81.15
2022-11-04T03:21:05.957Z,80.17
2022-11-04T03:23:32.719Z,82.24
2022-11-04T03:26:08.983Z,80.13
2022-11-04T03:28:43.003Z,76.65
2022-11-04T03:31:19.063Z,76.84
2022-11-04T03:33:48.423Z,75.78
2022-11-04T03:36:15.279Z,78.30
2022-11-04T03:38:42.205Z,76.29
2022-11-04T03:41:14.966Z,76.25
2022-11-04T03:43:41.830Z,74.46
2022-11-04T03:46:08.495Z,72.25
2022-11-04T03:48:36.472Z,71.87
2022-11-04T03:51:03.164Z,72.70
2022-11-04T03:53:30.890Z,71.70
2022-11-04T03:56:12.576Z,72.33
2022-11-04T03:58:48.202Z,74.51
2022-11-04T04:01:25.699Z,74.23
2022-11-04T04:04:00.004Z,73.77
2022-11-04T04:06:31.025Z,74.04
2022-11-04T04:09:05.721Z,73.76
2022-11-04T04:11:39.034Z,73.89
2022-11-04T04:14:12.904Z,71.57
2022-11-04T04:16:43.792Z,72.28
2022-11-04T04:19:14.130Z,73.55
2022-11-04T04:21:45.436Z,71.49
2022-11-04T04:24:15.357Z,71.45
2022-11-04T04:26:42.525Z,71.71
2022-11-04T04:29:10.657Z,70.87
2022-11-04T04:31:39.443Z,68.96
2022-11-04T04:34:06.254Z,69.99
2022-11-04T04:36:41.949Z,70.61
2022-11-04T04:39:10.102Z,69.21
2022-11-04T04:41:36.615Z,70.96
2022-11-04T04:44:04.662Z,69.42
2022-11-04T04:46:32.010Z,68.50
2022-11-04T04:49:04.274Z,68.99
2022-11-04T04:51:31.174Z,70.35
2022-11-04T04:53:59.115Z,70.17
2022-11-04T04:56:25.696Z,70.34
2022-11-04T04:58:52.097Z,70.42
2022-11-04T05:01:18.639Z,71.11
2022-11-04T05:03:45.503Z,72.22
2022-11-04T05:06:11.907Z,71.26
2022-11-04T05:08:38.346Z,70.05
2022-11-04T05:11:06.442Z,70.22
2022-11-04T05:13:32.899Z,69.64
2022-11-04T05:16:04.534Z,68.77
2022-11-04T05:18:31.019Z,69.24
2022-11-04T05:20:57.482Z,68.10
2022-11-04T05:23:23.888Z,68.94
2022-11-04T05:25:50.296Z,69.78
2022-11-04T05:28:18.029Z,71.20
2022-11-04T05:30:44.409Z,69.30
2022-11-04T05:33:11.168Z,69.91
2022-11-04T05:35:37.876Z,69.14
2022-11-04T05:38:04.290Z,70.37
2022-11-04T05:40:30.772Z,68.47
2022-11-04T05:42:58.236Z,70.13
2022-11-04T05:45:26.022Z,69.73
2022-11-04T05:47:58.026Z,71.80
2022-11-04T05:50:24.457Z,70.12
2022-11-04T05:52:50.875Z,69.78
2022-11-04T05:55:17.351Z,68.29
2022-11-04T05:57:43.726Z,67.85
2022-11-04T06:00:11.709Z,70.52
2022-11-04T06:02:39.711Z,70.63
2022-11-04T06:05:07.679Z,69.67
2022-11-04T06:07:34.141Z,69.45
2022-11-04T06:10:00.603Z,70.18
2022-11-04T06:12:27.023Z,69.21
2022-11-04T06:14:53.480Z,69.09
2022-11-04T06:17:21.974Z,71.53
2022-11-04T06:19:50.059Z,70.06
2022-11-04T06:22:17.845Z,72.06
2022-11-04T06:24:44.701Z,69.22
2022-11-04T06:27:11.766Z,69.45
2022-11-04T06:29:38.745Z,69.08
2022-11-04T06:32:05.379Z,71.72
2022-11-04T06:34:31.790Z,68.80
2022-11-04T06:36:59.519Z,68.38
2022-11-04T06:39:26.053Z,70.77
2022-11-04T06:41:53.042Z,68.89
2022-11-04T06:44:21.837Z,69.72
2022-11-04T06:46:48.278Z,68.36
2022-11-04T06:49:16.551Z,70.04
2022-11-04T06:51:43.165Z,70.02
2022-11-04T06:54:11.253Z,71.02
2022-11-04T06:56:37.899Z,68.62
2022-11-04T06:59:04.838Z,68.26
2022-11-04T07:01:34.977Z,68.92
2022-11-04T07:04:02.439Z,68.91
2022-11-04T07:06:29.380Z,68.92
2022-11-04T07:08:57.886Z,68.11
2022-11-04T07:11:26.645Z,67.98
2022-11-04T07:13:53.184Z,68.00
2022-11-04T07:16:19.608Z,68.43
2022-11-04T07:18:46.455Z,65.39
2022-11-04T07:21:13.009Z,68.31
2022-11-04T07:23:39.441Z,68.90
2022-11-04T07:26:07.409Z,67.48
2022-11-04T07:28:35.314Z,68.27
2022-11-04T07:31:03.222Z,65.94
2022-11-04T07:33:29.882Z,66.17
2022-11-04T07:35:57.124Z,67.03
2022-11-04T07:38:24.677Z,65.27
2022-11-04T07:40:51.065Z,67.02
2022-11-04T07:43:17.521Z,65.99
2022-11-04T07:45:45.318Z,65.76
2022-11-04T07:48:12.109Z,64.18
2022-11-04T07:50:39.411Z,65.74
2022-11-04T07:53:06.294Z,62.85
2022-11-04T07:55:32.981Z,63.33
2022-11-04T07:57:59.397Z,62.68
2022-11-04T08:00:26.143Z,64.15
2022-11-04T08:02:54.303Z,61.83
2022-11-04T08:05:20.746Z,63.40
2022-11-04T08:07:47.181Z,65.21
2022-11-04T08:10:13.576Z,63.89
2022-11-04T08:12:39.975Z,62.83
2022-11-04T08:15:07.878Z,61.95
2022-11-04T08:17:34.273Z,63.00
2022-11-04T08:20:02.020Z,64.44
2022-11-04T08:22:32.783Z,62.90
2022-11-04T08:24:59.588Z,62.33
2022-11-04T08:27:26.129Z,61.88
2022-11-04T08:29:52.547Z,63.72
2022-11-04T08:32:19.017Z,61.61
2022-11-04T08:34:45.454Z,65.21
2022-11-04T08:37:14.796Z,62.37
2022-11-04T08:39:41.448Z,60.68
2022-11-04T08:42:08.394Z,61.82
2022-11-04T08:44:35.078Z,64.18
2022-11-04T08:47:03.856Z,62.98
2022-11-04T08:49:30.546Z,62.01
2022-11-04T08:51:57.061Z,62.26
2022-11-04T08:54:25.244Z,60.17
2022-11-04T08:56:51.837Z,61.16
2022-11-04T08:59:18.267Z,59.76
2022-11-04T09:01:45.414Z,59.21
2022-11-04T09:04:12.680Z,61.13
2022-11-04T09:06:41.957Z,62.90
2022-11-04T09:09:11.675Z,62.16
2022-11-04T09:11:41.513Z,62.63
2022-11-04T09:14:08.363Z,63.11
2022-11-04T09:16:36.573Z,63.19
2022-11-04T09:19:03.487Z,62.74
2022-11-04T09:21:30.056Z,63.95
2022-11-04T09:23:56.572Z,61.42
2022-11-04T09:26:23.928Z,61.01
2022-11-04T09:28:54.819Z,60.17
2022-11-04T09:31:21.412Z,60.61
2022-11-04T09:33:47.906Z,61.48
2022-11-04T09:36:14.437Z,60.86
2022-11-04T09:38:42.122Z,60.46
2022-11-04T09:41:19.702Z,60.71
2022-11-04T09:43:52.589Z,61.78
2022-11-04T09:46:21.041Z,60.30
2022-11-04T09:48:50.481Z,61.70
2022-11-04T09:51:39.837Z,60.57
2022-11-04T09:54:12.306Z,60.53
2022-11-04T09:56:43.383Z,60.90
2022-11-04T09:59:15.106Z,62.08
2022-11-04T10:01:51.216Z,59.94
2022-11-04T10:04:25.234Z,60.27
2022-11-04T10:07:07.959Z,59.35
2022-11-04T10:09:48.565Z,57.80
2022-11-04T10:12:27.577Z,57.23
2022-11-04T10:15:12.909Z,58.90
2022-11-04T10:17:57.813Z,59.50
2022-11-04T10:20:44.845Z,58.14
2022-11-04T10:23:21.811Z,60.30
2022-11-04T10:25:51.403Z,59.78
2022-11-04T10:28:20.153Z,58.39
2022-11-04T10:30:49.605Z,60.38
2022-11-04T10:33:26.250Z,62.83
2022-11-04T10:35:56.721Z,60.68
2022-11-04T10:38:32.046Z,59.54
2022-11-04T10:41:04.501Z,59.34
2022-11-04T10:43:37.422Z,61.33
2022-11-04T10:46:15.244Z,58.01
2022-11-04T10:48:49.453Z,58.57
2022-11-04T10:51:17.069Z,58.79
2022-11-04T10:53:43.472Z,61.56
2022-11-04T10:56:17.942Z,60.32
2022-11-04T10:58:46.355Z,60.49
2022-11-04T11:01:25.160Z,56.54
2022-11-04T11:03:53.570Z,55.91
2022-11-04T11:06:25.330Z,55.55
2022-11-04T11:08:53.754Z,56.67
2022-11-04T11:11:37.489Z,56.48
2022-11-04T11:14:03.943Z,57.20
2022-11-04T11:16:30.365Z,59.46
2022-11-04T11:19:16.163Z,58.17
2022-11-04T11:21:43.596Z,57.22
2022-11-04T11:24:14.489Z,57.19
2022-11-04T11:26:41.321Z,58.79
2022-11-04T11:29:11.334Z,59.13
2022-11-04T11:31:40.138Z,58.49
2022-11-04T11:34:15.166Z,58.99
2022-11-04T11:36:42.048Z,57.05
2022-11-04T11:39:16.113Z,56.91
2022-11-04T11:41:53.966Z,56.02
2022-11-04T11:44:26.425Z,55.74
2022-11-04T11:46:55.094Z,54.79
2022-11-04T11:49:26.580Z,55.95
2022-11-04T11:51:52.996Z,55.79
2022-11-04T11:54:26.521Z,55.57
2022-11-04T12:02:41.427Z,56.94
2022-11-04T12:10:59.510Z,55.68
2022-11-04T12:13:29.522Z,55.83
2022-11-04T12:16:26.145Z,56.12
2022-11-04T12:19:04.122Z,58.05
2022-11-04T12:21:35.947Z,56.20
2022-11-04T12:24:19.133Z,57.78
2022-11-04T12:26:56.579Z,59.43
2022-11-04T12:29:39.271Z,59.64
2022-11-04T12:32:15.695Z,57.79
2022-11-04T12:34:56.462Z,57.30
2022-11-04T12:37:32.909Z,57.10
2022-11-04T12:40:12.616Z,58.15
2022-11-04T12:42:50.755Z,58.97
2022-11-04T12:45:30.215Z,57.25
2022-11-04T12:48:01.792Z,55.22
2022-11-04T12:50:46.547Z,55.17
2022-11-04T12:53:37.255Z,53.91
2022-11-04T12:56:09.066Z,53.86
2022-11-04T12:58:47.925Z,55.26
2022-11-04T13:01:19.957Z,54.30
2022-11-04T13:03:53.389Z,56.31
2022-11-04T13:06:25.932Z,53.73
2022-11-04T13:08:58.909Z,55.04
2022-11-04T13:11:30.980Z,55.59
2022-11-04T13:14:03.778Z,55.05
2022-11-04T13:16:33.985Z,54.64
2022-11-04T13:19:01.602Z,54.95
2022-11-04T13:21:33.691Z,53.99
2022-11-04T13:24:05.792Z,57.14
2022-11-04T13:26:32.714Z,57.32
2022-11-04T13:29:08.914Z,54.91
2022-11-04T13:31:46.394Z,54.20
2022-11-04T13:34:25.555Z,55.07
2022-11-04T13:37:00.887Z,55.98
2022-11-04T13:39:34.615Z,56.30
2022-11-04T13:42:23.129Z,55.80
2022-11-04T13:44:51.841Z,58.67
2022-11-04T13:47:22.557Z,56.50
2022-11-04T13:49:51.013Z,55.58
2022-11-04T13:52:18.461Z,57.07
2022-11-04T13:54:53.125Z,55.58
2022-11-04T13:57:21.557Z,56.07
2022-11-04T14:00:08.128Z,56.87
2022-11-04T14:02:40.384Z,56.75
2022-11-04T14:05:51.321Z,57.72
2022-11-04T14:08:17.962Z,56.30
2022-11-04T14:10:59.349Z,56.81
2022-11-04T14:14:04.053Z,55.33
2022-11-04T14:16:39.166Z,57.39
2022-11-04T14:19:53.740Z,57.61
2022-11-04T14:22:20.169Z,58.36
2022-11-04T14:24:54.901Z,56.30
2022-11-04T14:27:27.781Z,57.95
2022-11-04T14:29:54.402Z,57.37
2022-11-04T14:32:25.679Z,56.76
2022-11-04T14:34:59.866Z,58.73
2022-11-04T14:37:30.409Z,57.05
2022-11-04T14:39:58.595Z,58.16
2022-11-04T14:42:49.466Z,59.06
2022-11-04T14:45:19.960Z,57.69
2022-11-04T14:47:49.739Z,58.71
2022-11-04T14:50:19.526Z,58.84
2022-11-04T14:52:50.621Z,58.76
2022-11-04T14:55:19.293Z,59.46
2022-11-04T14:57:48.305Z,58.99
2022-11-04T15:00:22.965Z,57.66
2022-11-04T15:02:59.971Z,57.84
2022-11-04T15:05:28.879Z,57.52
2022-11-04T15:07:55.380Z,58.97
2022-11-04T15:10:24.371Z,57.64
2022-11-04T15:12:53.733Z,57.55
2022-11-04T15:15:35.953Z,56.46
2022-11-04T15:18:06.473Z,58.80
2022-11-04T15:20:35.773Z,58.46
2022-11-04T15:23:06.705Z,59.99
2022-11-04T15:25:33.537Z,59.07
2022-11-04T15:28:01.308Z,58.94
2022-11-04T15:30:29.899Z,59.48
2022-11-04T15:32:58.630Z,60.24
2022-11-04T15:35:26.814Z,60.16
2022-11-04T15:37:54.957Z,59.82
2022-11-04T15:40:22.326Z,60.96
2022-11-04T15:42:50.395Z,60.24
2022-11-04T15:45:27.582Z,60.46
2022-11-04T15:48:26.628Z,60.32
2022-11-04T15:51:04.281Z,61.75
2022-11-04T15:53:32.021Z,60.52
2022-11-04T15:55:59.827Z,62.65
2022-11-04T15:58:26.637Z,60.41
2022-11-04T16:00:55.775Z,61.07
2022-11-04T16:03:22.815Z,61.74
2022-11-04T16:06:05.453Z,60.85
2022-11-04T16:08:32.782Z,62.68
2022-11-04T16:11:11.835Z,62.71
2022-11-04T16:13:38.764Z,62.47
2022-11-04T16:16:18.845Z,64.11
2022-11-04T16:18:52.081Z,62.63
2022-11-04T16:21:25.203Z,63.28
2022-11-04T16:23:56.559Z,62.03
2022-11-04T16:26:28.520Z,63.46
2022-11-04T16:28:56.596Z,62.21
2022-11-04T16:31:32.885Z,62.28
2022-11-04T16:33:59.425Z,62.78
2022-11-04T16:36:30.913Z,62.52
2022-11-04T16:39:02.572Z,63.60
2022-11-04T16:41:32.154Z,64.04
2022-11-04T16:43:58.789Z,63.40
2022-11-04T16:46:25.562Z,64.36
2022-11-04T16:48:53.291Z,63.85
2022-11-04T16:51:21.482Z,64.70
2022-11-04T16:53:49.645Z,64.23
2022-11-04T16:56:17.549Z,63.92
2022-11-04T16:58:44.068Z,64.16
2022-11-04T17:01:11.772Z,63.25
2022-11-04T17:03:38.382Z,64.25
2022-11-04T17:06:06.792Z,63.78
2022-11-04T17:08:33.216Z,62.97
2022-11-04T17:10:59.669Z,63.78
2022-11-04T17:13:26.111Z,63.03
2022-11-04T17:15:52.553Z,64.21
2022-11-04T17:18:19.013Z,64.74
2022-11-04T17:20:48.979Z,64.13
2022-11-04T17:23:16.872Z,64.81
2022-11-04T17:25:43.793Z,63.77
2022-11-04T17:28:10.377Z,63.95
2022-11-04T17:30:37.211Z,64.68
2022-11-04T17:33:03.698Z,64.40
2022-11-04T17:35:33.876Z,64.67
2022-11-04T17:38:00.339Z,64.11
2022-11-04T17:40:28.133Z,64.15
2022-11-04T17:42:54.542Z,64.16
2022-11-04T17:45:21.491Z,64.25
2022-11-04T17:47:48.023Z,64.44
2022-11-04T17:50:14.495Z,65.61
2022-11-04T17:52:40.919Z,66.82
2022-11-04T17:55:11.140Z,65.22
2022-11-04T17:57:43.324Z,64.76
2022-11-04T18:00:11.165Z,64.77
2022-11-04T18:02:37.839Z,64.79
2022-11-04T18:05:05.086Z,64.28
2022-11-04T18:07:31.477Z,64.90
2022-11-04T18:09:57.972Z,64.97
2022-11-04T18:12:24.402Z,66.27
2022-11-04T18:14:52.220Z,66.65
2022-11-04T18:17:18.625Z,66.23
2022-11-04T18:19:45.050Z,65.24
2022-11-04T18:22:11.481Z,66.95
2022-11-04T18:24:38.061Z,66.52
2022-11-04T18:27:04.517Z,67.14
2022-11-04T18:29:30.943Z,67.51
2022-11-04T18:31:58.896Z,66.71
2022-11-04T18:34:25.467Z,66.21
2022-11-04T18:36:51.865Z,66.28
2022-11-04T18:39:18.895Z,66.04
2022-11-04T18:41:45.646Z,65.66
2022-11-04T18:44:15.491Z,66.10
2022-11-04T18:46:41.971Z,65.29
2022-11-04T18:49:10.026Z,66.38
2022-11-04T18:51:36.515Z,66.45
2022-11-04T18:54:04.027Z,65.80
2022-11-04T18:56:30.696Z,65.91
2022-11-04T18:58:57.097Z,66.31
2022-11-04T19:01:26.150Z,65.75
2022-11-04T19:03:52.936Z,65.86
2022-11-04T19:06:23.110Z,65.83
2022-11-04T19:08:49.494Z,65.20
2022-11-04T19:11:19.053Z,64.78
2022-11-04T19:13:50.421Z,65.38
2022-11-04T19:16:20.458Z,66.57
2022-11-04T19:18:47.071Z,66.13
2022-11-04T19:21:13.587Z,65.58
2022-11-04T19:23:41.370Z,65.81
2022-11-04T19:26:09.569Z,65.75
2022-11-04T19:28:47.689Z,68.38
2022-11-04T19:31:16.329Z,67.10
2022-11-04T19:33:43.149Z,67.17
2022-11-04T19:36:12.062Z,68.46
2022-11-04T19:38:38.591Z,67.75
2022-11-04T19:41:10.992Z,68.06
2022-11-04T19:43:37.386Z,67.14
2022-11-04T19:46:04.808Z,66.83
2022-11-04T19:48:31.486Z,65.66
2022-11-04T19:50:57.887Z,67.00
2022-11-04T19:53:24.475Z,66.50
2022-11-04T19:55:52.447Z,66.00
2022-11-04T19:58:20.800Z,65.98
2022-11-04T20:00:47.258Z,65.51
2022-11-04T20:03:14.493Z,65.41
2022-11-04T20:05:42.469Z,64.17
2022-11-04T20:08:09.667Z,64.23
2022-11-04T20:10:38.188Z,64.00
2022-11-04T20:13:04.886Z,65.62
2022-11-04T20:15:32.707Z,65.37
2022-11-04T20:17:59.807Z,65.88
2022-11-04T20:20:26.284Z,65.00
2022-11-04T20:22:52.715Z,66.75
2022-11-04T20:25:19.149Z,65.98
2022-11-04T20:27:45.533Z,64.67
2022-11-04T20:30:12.376Z,64.50
2022-11-04T20:32:40.400Z,63.96
2022-11-04T20:35:07.442Z,64.32
2022-11-04T20:37:33.919Z,65.46
2022-11-04T20:40:00.383Z,66.38
2022-11-04T20:42:26.922Z,66.60
2022-11-04T20:44:53.385Z,65.84
2022-11-04T20:47:19.790Z,66.66
2022-11-04T20:49:47.566Z,66.72
2022-11-04T20:52:13.999Z,67.12
2022-11-04T20:54:40.413Z,67.06
2022-11-04T20:57:06.807Z,66.70
2022-11-04T20:59:33.561Z,65.83
2022-11-04T21:02:00.137Z,66.45
2022-11-04T21:04:29.563Z,66.85
2022-11-04T21:07:01.086Z,66.14
2022-11-04T21:09:27.543Z,66.78
2022-11-04T21:11:53.970Z,67.31
2022-11-04T21:14:20.577Z,67.89
2022-11-04T21:16:47.413Z,68.08
2022-11-04T21:19:13.866Z,67.65
2022-11-04T21:21:41.812Z,69.56
2022-11-04T21:24:11.719Z,67.91
2022-11-04T21:26:38.186Z,68.83
2022-11-04T21:29:07.007Z,69.81
2022-11-04T21:31:35.685Z,70.09
2022-11-04T21:34:02.526Z,69.11
2022-11-04T21:36:29.210Z,68.81
2022-11-04T21:38:56.013Z,68.87
2022-11-04T21:41:26.663Z,67.57
2022-11-04T21:43:54.291Z,69.19
2022-11-04T21:46:20.797Z,68.26
2022-11-04T21:48:47.199Z,68.00
2022-11-04T21:51:15.390Z,69.32
2022-11-04T21:53:42.133Z,68.07
2022-11-04T21:56:12.246Z,68.55
2022-11-04T21:58:40.345Z,69.75
2022-11-04T22:01:08.072Z,69.54
2022-11-04T22:03:34.820Z,69.37
2022-11-04T22:06:03.326Z,70.65
2022-11-04T22:08:30.827Z,69.78
2022-11-04T22:11:04.545Z,68.97
2022-11-04T22:13:30.813Z,69.41
2022-11-04T22:15:58.653Z,69.40
2022-11-04T22:18:25.257Z,69.92
2022-11-04T22:20:51.781Z,68.63
2022-11-04T22:23:18.271Z,68.46
2022-11-04T22:25:49.771Z,70.82
2022-11-04T22:28:16.713Z,69.12
2022-11-04T22:30:43.537Z,68.17
2022-11-04T22:33:11.776Z,69.10
2022-11-04T22:35:38.673Z,68.59
2022-11-04T22:38:05.107Z,68.40
2022-11-04T22:40:31.579Z,67.88
2022-11-04T22:42:58.002Z,71.15
2022-11-04T22:45:24.645Z,69.37
2022-11-04T22:47:51.122Z,68.93
2022-11-04T22:50:19.074Z,68.81
2022-11-04T22:52:45.462Z,69.70
2022-11-04T22:55:11.915Z,69.64
2022-11-04T22:57:38.366Z,68.29
2022-11-04T23:00:06.405Z,69.71
2022-11-04T23:02:36.766Z,69.10
2022-11-04T23:05:04.295Z,69.57
2022-11-04T23:07:32.169Z,70.56
2022-11-04T23:09:58.747Z,68.80
2022-11-04T23:12:25.148Z,69.04
2022-11-04T23:14:51.562Z,69.24
2022-11-04T23:17:19.816Z,70.49
2022-11-04T23:19:46.246Z,69.14
2022-11-04T23:22:12.665Z,68.84
2022-11-04T23:24:40.698Z,69.46
2022-11-04T23:27:07.125Z,70.56
2022-11-04T23:29:33.567Z,69.26
2022-11-04T23:32:00.038Z,70.02
2022-11-04T23:34:26.626Z,69.74
2022-11-04T23:36:53.045Z,68.96
2022-11-04T23:39:19.717Z,68.58
2022-11-04T23:41:47.510Z,68.76
2022-11-04T23:44:13.909Z,71.66
2022-11-04T23:46:43.438Z,69.54
2022-11-04T23:49:11.004Z,69.56
2022-11-04T23:51:37.380Z,68.10
2022-11-04T23:54:04.654Z,69.83
2022-11-04T23:56:31.510Z,69.56
2022-11-04T23:58:59.267Z,70.92
